sensor_id;sensor_type;location;lat;lon;timestamp;temperature;humidity
5930;DHT22;2990;48.746;9.236;2024-01-15T00:01:29;-2.30;99.90
5930;DHT22;2990;48.746;9.236;2024-01-15T00:03:54;-2.30;1.00
5930;DHT22;2990;48.746;9.236;2024-01-15T00:06:20;-2.30;1.00
5930;DHT22;2990;48.746;9.236;2024-01-15T00:08:46;-2.30;1.00
5930;DHT22;2990;48.746;9.236;2024-01-15T00:11:11;-2.30;1.00
5930;DHT22;2990;48.746;9.236;2024-01-15T00:13:37;-2.30;99.90
5930;DHT22;2990;48.746;9.236;2024-01-15T00:16:03;-2.30;2.50
5930;DHT22;2990;48.746;9.236;2024-01-15T00:18:29;-2.30;21.80
5930;DHT22;2990;48.746;9.236;2024-01-15T00:20:54;-2.30;99.90
5930;DHT22;2990;48.746;9.236;2024-01-15T00:23:20;-2.40;99.90
5930;DHT22;2990;48.746;9.236;2024-01-15T00:25:46;-2.40;1.00
5930;DHT22;2990;48.746;9.236;2024-01-15T00:28:11;-2.50;48.50
5930;DHT22;2990;48.746;9.236;2024-01-15T00:30:37;-2.50;1.00
5930;DHT22;2990;48.746;9.236;2024-01-15T00:33:03;-2.60;1.00
5930;DHT22;2990;48.746;9.236;2024-01-15T00:35:28;-2.60;99.90
5930;DHT22;2990;48.746;9.236;2024-01-15T00:37:54;-2.60;1.00
5930;DHT22;2990;48.746;9.236;2024-01-15T00:40:19;-2.60;1.00
5930;DHT22;2990;48.746;9.236;2024-01-15T00:42:45;-2.60;99.90
5930;DHT22;2990;48.746;9.236;2024-01-15T00:45:10;-2.60;1.00
5930;DHT22;2990;48.746;9.236;2024-01-15T00:47:36;-2.60;99.90
5930;DHT22;2990;48.746;9.236;2024-01-15T00:50:01;-2.60;1.00
5930;DHT22;2990;48.746;9.236;2024-01-15T00:52:27;-2.60;1.00
5930;DHT22;2990;48.746;9.236;2024-01-15T00:54:52;-2.70;1.00
5930;DHT22;2990;48.746;9.236;2024-01-15T00:57:18;-2.70;99.90
5930;DHT22;2990;48.746;9.236;2024-01-15T00:59:44;-2.70;1.00
5930;DHT22;2990;48.746;9.236;2024-01-15T01:02:10;-2.70;99.90
5930;DHT22;2990;48.746;9.236;2024-01-15T01:04:36;-2.70;1.00
5930;DHT22;2990;48.746;9.236;2024-01-15T01:07:01;-2.70;1.00
5930;DHT22;2990;48.746;9.236;2024-01-15T01:09:27;-2.70;61.30
5930;DHT22;2990;48.746;9.236;2024-01-15T01:11:56;-2.60;99.90
5930;DHT22;2990;48.746;9.236;2024-01-15T01:14:22;-2.70;99.90
5930;DHT22;2990;48.746;9.236;2024-01-15T01:16:47;-2.70;1.00
5930;DHT22;2990;48.746;9.236;2024-01-15T01:19:13;-2.70;1.00
5930;DHT22;2990;48.746;9.236;2024-01-15T01:21:39;-2.70;1.00
5930;DHT22;2990;48.746;9.236;2024-01-15T01:24:04;-2.60;1.00
5930;DHT22;2990;48.746;9.236;2024-01-15T01:26:30;-2.60;99.90
5930;DHT22;2990;48.746;9.236;2024-01-15T01:28:56;-2.60;99.90
5930;DHT22;2990;48.746;9.236;2024-01-15T01:31:23;-2.60;96.60
5930;DHT22;2990;48.746;9.236;2024-01-15T01:33:49;-2.50;94.00
5930;DHT22;2990;48.746;9.236;2024-01-15T01:36:14;-2.50;99.90
5930;DHT22;2990;48.746;9.236;2024-01-15T01:38:40;-2.50;99.90
5930;DHT22;2990;48.746;9.236;2024-01-15T01:41:06;-2.50;7.50
5930;DHT22;2990;48.746;9.236;2024-01-15T01:43:32;-2.40;1.00
5930;DHT22;2990;48.746;9.236;2024-01-15T01:46:00;-2.40;1.00
5930;DHT22;2990;48.746;9.236;2024-01-15T01:48:26;-2.40;1.00
5930;DHT22;2990;48.746;9.236;2024-01-15T01:50:58;-2.30;1.00
5930;DHT22;2990;48.746;9.236;2024-01-15T01:53:25;-2.30;1.00
5930;DHT22;2990;48.746;9.236;2024-01-15T01:55:52;-2.30;1.00
5930;DHT22;2990;48.746;9.236;2024-01-15T01:58:19;-2.30;1.00
5930;DHT22;2990;48.746;9.236;2024-01-15T02:00:46;-2.20;1.00
5930;DHT22;2990;48.746;9.236;2024-01-15T02:03:12;-2.30;1.00
5930;DHT22;2990;48.746;9.236;2024-01-15T02:05:39;-2.20;1.00
5930;DHT22;2990;48.746;9.236;2024-01-15T02:08:05;-2.20;1.00
5930;DHT22;2990;48.746;9.236;2024-01-15T02:10:31;-2.20;1.00
5930;DHT22;2990;48.746;9.236;2024-01-15T02:12:56;-2.20;1.00
5930;DHT22;2990;48.746;9.236;2024-01-15T02:15:22;-2.20;1.00
5930;DHT22;2990;48.746;9.236;2024-01-15T02:18:04;-2.20;1.00
5930;DHT22;2990;48.746;9.236;2024-01-15T02:20:31;-2.20;1.00
5930;DHT22;2990;48.746;9.236;2024-01-15T02:23:07;-2.20;1.00
5930;DHT22;2990;48.746;9.236;2024-01-15T02:25:34;-2.20;1.00
5930;DHT22;2990;48.746;9.236;2024-01-15T02:27:59;-2.20;1.00
5930;DHT22;2990;48.746;9.236;2024-01-15T02:30:25;-2.30;83.10
5930;DHT22;2990;48.746;9.236;2024-01-15T02:32:52;-2.20;99.90
5930;DHT22;2990;48.746;9.236;2024-01-15T02:35:18;-2.20;99.90
5930;DHT22;2990;48.746;9.236;2024-01-15T02:37:43;-2.20;99.90
5930;DHT22;2990;48.746;9.236;2024-01-15T02:40:09;-2.20;99.90
5930;DHT22;2990;48.746;9.236;2024-01-15T02:42:34;-2.20;99.90
5930;DHT22;2990;48.746;9.236;2024-01-15T02:45:00;-2.20;99.90
5930;DHT22;2990;48.746;9.236;2024-01-15T02:47:26;-2.20;99.90
5930;DHT22;2990;48.746;9.236;2024-01-15T02:49:51;-2.20;99.90
5930;DHT22;2990;48.746;9.236;2024-01-15T02:52:17;-2.30;99.90
5930;DHT22;2990;48.746;9.236;2024-01-15T02:54:43;-2.30;99.90
5930;DHT22;2990;48.746;9.236;2024-01-15T02:57:08;-2.30;99.90
5930;DHT22;2990;48.746;9.236;2024-01-15T02:59:34;-2.40;99.90
5930;DHT22;2990;48.746;9.236;2024-01-15T03:01:59;-2.40;99.90
5930;DHT22;2990;48.746;9.236;2024-01-15T03:04:25;-2.40;1.00
5930;DHT22;2990;48.746;9.236;2024-01-15T03:06:50;-2.50;1.00
5930;DHT22;2990;48.746;9.236;2024-01-15T03:09:16;-2.50;1.00
5930;DHT22;2990;48.746;9.236;2024-01-15T03:11:41;-2.50;1.00
5930;DHT22;2990;48.746;9.236;2024-01-15T03:14:07;-2.50;1.00
5930;DHT22;2990;48.746;9.236;2024-01-15T03:16:32;-2.50;1.00
5930;DHT22;2990;48.746;9.236;2024-01-15T03:18:58;-2.60;1.00
5930;DHT22;2990;48.746;9.236;2024-01-15T03:21:23;-2.60;1.00
5930;DHT22;2990;48.746;9.236;2024-01-15T03:23:49;-2.60;1.00
5930;DHT22;2990;48.746;9.236;2024-01-15T03:26:14;-2.70;12.10
5930;DHT22;2990;48.746;9.236;2024-01-15T03:28:40;-2.70;90.00
5930;DHT22;2990;48.746;9.236;2024-01-15T03:31:05;-2.70;99.90
5930;DHT22;2990;48.746;9.236;2024-01-15T03:33:31;-2.70;99.90
5930;DHT22;2990;48.746;9.236;2024-01-15T03:35:56;-2.70;99.90
5930;DHT22;2990;48.746;9.236;2024-01-15T03:38:23;-2.70;99.90
5930;DHT22;2990;48.746;9.236;2024-01-15T03:40:48;-2.70;99.90
5930;DHT22;2990;48.746;9.236;2024-01-15T03:43:14;-2.70;99.90
5930;DHT22;2990;48.746;9.236;2024-01-15T03:45:39;-2.70;99.90
5930;DHT22;2990;48.746;9.236;2024-01-15T03:48:05;-2.70;99.90
5930;DHT22;2990;48.746;9.236;2024-01-15T03:50:31;-2.70;99.90
5930;DHT22;2990;48.746;9.236;2024-01-15T03:52:56;-2.70;99.90
5930;DHT22;2990;48.746;9.236;2024-01-15T03:55:22;-2.60;99.90
5930;DHT22;2990;48.746;9.236;2024-01-15T03:57:47;-2.60;99.90
5930;DHT22;2990;48.746;9.236;2024-01-15T04:00:14;-2.60;99.90
5930;DHT22;2990;48.746;9.236;2024-01-15T04:02:40;-2.50;99.90
5930;DHT22;2990;48.746;9.236;2024-01-15T04:05:05;-2.40;99.90
5930;DHT22;2990;48.746;9.236;2024-01-15T04:07:31;-2.40;99.90
5930;DHT22;2990;48.746;9.236;2024-01-15T04:09:57;-2.30;99.90
5930;DHT22;2990;48.746;9.236;2024-01-15T04:12:22;-2.30;52.60
5930;DHT22;2990;48.746;9.236;2024-01-15T04:14:48;-2.20;1.00
5930;DHT22;2990;48.746;9.236;2024-01-15T04:17:13;-2.20;1.00
5930;DHT22;2990;48.746;9.236;2024-01-15T04:19:39;-2.20;1.00
5930;DHT22;2990;48.746;9.236;2024-01-15T04:22:04;-2.10;1.00
5930;DHT22;2990;48.746;9.236;2024-01-15T04:24:31;-2.10;1.00
5930;DHT22;2990;48.746;9.236;2024-01-15T04:26:57;-2.10;1.00
5930;DHT22;2990;48.746;9.236;2024-01-15T04:29:22;-2.00;1.00
5930;DHT22;2990;48.746;9.236;2024-01-15T04:31:48;-2.00;99.90
5930;DHT22;2990;48.746;9.236;2024-01-15T04:34:13;-2.00;99.90
5930;DHT22;2990;48.746;9.236;2024-01-15T04:36:40;-1.90;99.90
5930;DHT22;2990;48.746;9.236;2024-01-15T04:39:06;-1.90;99.90
5930;DHT22;2990;48.746;9.236;2024-01-15T04:41:33;-1.80;99.90
5930;DHT22;2990;48.746;9.236;2024-01-15T04:43:58;-1.80;1.00
5930;DHT22;2990;48.746;9.236;2024-01-15T04:46:25;-1.80;1.00
5930;DHT22;2990;48.746;9.236;2024-01-15T04:48:51;-1.80;1.00
5930;DHT22;2990;48.746;9.236;2024-01-15T04:51:16;-1.70;1.00
5930;DHT22;2990;48.746;9.236;2024-01-15T04:53:42;-1.70;1.00
5930;DHT22;2990;48.746;9.236;2024-01-15T04:56:07;-1.60;99.90
5930;DHT22;2990;48.746;9.236;2024-01-15T04:58:33;-1.60;1.00
5930;DHT22;2990;48.746;9.236;2024-01-15T05:00:59;-1.60;1.00
5930;DHT22;2990;48.746;9.236;2024-01-15T05:03:24;-1.50;99.90
5930;DHT22;2990;48.746;9.236;2024-01-15T05:05:50;-1.50;99.90
5930;DHT22;2990;48.746;9.236;2024-01-15T05:08:15;-1.50;52.70
5930;DHT22;2990;48.746;9.236;2024-01-15T05:10:41;-1.50;99.90
5930;DHT22;2990;48.746;9.236;2024-01-15T05:13:06;-1.50;99.90
5930;DHT22;2990;48.746;9.236;2024-01-15T05:15:32;-1.40;99.90
5930;DHT22;2990;48.746;9.236;2024-01-15T05:17:57;-1.40;99.90
5930;DHT22;2990;48.746;9.236;2024-01-15T05:20:23;-1.50;1.00
5930;DHT22;2990;48.746;9.236;2024-01-15T05:22:48;-1.40;1.00
5930;DHT22;2990;48.746;9.236;2024-01-15T05:25:14;-1.50;1.00
5930;DHT22;2990;48.746;9.236;2024-01-15T05:27:39;-1.40;39.70
5930;DHT22;2990;48.746;9.236;2024-01-15T05:30:05;-1.40;1.00
5930;DHT22;2990;48.746;9.236;2024-01-15T05:32:31;-1.40;1.00
5930;DHT22;2990;48.746;9.236;2024-01-15T05:34:57;-1.40;1.00
5930;DHT22;2990;48.746;9.236;2024-01-15T05:37:22;-1.40;1.00
5930;DHT22;2990;48.746;9.236;2024-01-15T05:39:48;-1.40;1.00
5930;DHT22;2990;48.746;9.236;2024-01-15T05:42:13;-1.40;1.00
5930;DHT22;2990;48.746;9.236;2024-01-15T05:44:39;-1.40;99.90
5930;DHT22;2990;48.746;9.236;2024-01-15T05:47:04;-1.30;99.90
5930;DHT22;2990;48.746;9.236;2024-01-15T05:49:30;-1.30;1.00
5930;DHT22;2990;48.746;9.236;2024-01-15T05:51:55;-1.30;99.90
5930;DHT22;2990;48.746;9.236;2024-01-15T05:54:21;-1.30;1.00
5930;DHT22;2990;48.746;9.236;2024-01-15T05:56:46;-1.30;99.90
5930;DHT22;2990;48.746;9.236;2024-01-15T05:59:12;-1.40;1.00
5930;DHT22;2990;48.746;9.236;2024-01-15T06:01:38;-1.40;1.00
5930;DHT22;2990;48.746;9.236;2024-01-15T06:04:03;-1.40;99.90
5930;DHT22;2990;48.746;9.236;2024-01-15T06:06:29;-1.40;99.90
5930;DHT22;2990;48.746;9.236;2024-01-15T06:08:54;-1.40;1.00
5930;DHT22;2990;48.746;9.236;2024-01-15T06:11:20;-1.40;1.00
5930;DHT22;2990;48.746;9.236;2024-01-15T06:13:45;-1.40;1.00
5930;DHT22;2990;48.746;9.236;2024-01-15T06:16:14;-1.40;1.00
5930;DHT22;2990;48.746;9.236;2024-01-15T06:18:44;-1.50;1.00
5930;DHT22;2990;48.746;9.236;2024-01-15T06:21:10;-1.40;1.00
5930;DHT22;2990;48.746;9.236;2024-01-15T06:23:38;-1.50;14.20
5930;DHT22;2990;48.746;9.236;2024-01-15T06:26:04;-1.50;36.00
5930;DHT22;2990;48.746;9.236;2024-01-15T06:28:29;-1.50;59.70
5930;DHT22;2990;48.746;9.236;2024-01-15T06:30:55;-1.50;59.80
5930;DHT22;2990;48.746;9.236;2024-01-15T06:33:20;-1.50;53.70
5930;DHT22;2990;48.746;9.236;2024-01-15T06:35:46;-1.40;89.60
5930;DHT22;2990;48.746;9.236;2024-01-15T06:38:11;-1.40;17.70
5930;DHT22;2990;48.746;9.236;2024-01-15T06:40:37;-1.50;2.70
5930;DHT22;2990;48.746;9.236;2024-01-15T06:43:03;-1.50;25.70
5930;DHT22;2990;48.746;9.236;2024-01-15T06:45:28;-1.50;23.20
5930;DHT22;2990;48.746;9.236;2024-01-15T06:47:54;-1.40;8.40
5930;DHT22;2990;48.746;9.236;2024-01-15T06:50:19;-1.40;13.60
5930;DHT22;2990;48.746;9.236;2024-01-15T06:52:45;-1.50;12.40
5930;DHT22;2990;48.746;9.236;2024-01-15T06:55:10;-1.50;1.00
5930;DHT22;2990;48.746;9.236;2024-01-15T06:57:36;-1.50;1.00
5930;DHT22;2990;48.746;9.236;2024-01-15T07:00:01;-1.40;1.00
5930;DHT22;2990;48.746;9.236;2024-01-15T07:02:28;-1.40;1.00
5930;DHT22;2990;48.746;9.236;2024-01-15T07:04:53;-1.40;1.00
5930;DHT22;2990;48.746;9.236;2024-01-15T07:07:19;-1.40;1.00
5930;DHT22;2990;48.746;9.236;2024-01-15T07:09:44;-1.40;1.00
5930;DHT22;2990;48.746;9.236;2024-01-15T07:12:10;-1.40;99.90
5930;DHT22;2990;48.746;9.236;2024-01-15T07:14:35;-1.40;1.00
5930;DHT22;2990;48.746;9.236;2024-01-15T07:17:01;-1.30;1.00
5930;DHT22;2990;48.746;9.236;2024-01-15T07:19:27;-1.30;99.90
5930;DHT22;2990;48.746;9.236;2024-01-15T07:21:53;-1.30;1.00
5930;DHT22;2990;48.746;9.236;2024-01-15T07:24:18;-1.30;1.00
5930;DHT22;2990;48.746;9.236;2024-01-15T07:26:44;-1.20;34.00
5930;DHT22;2990;48.746;9.236;2024-01-15T07:29:09;-1.20;1.00
5930;DHT22;2990;48.746;9.236;2024-01-15T07:31:35;-1.20;99.90
5930;DHT22;2990;48.746;9.236;2024-01-15T07:34:00;-1.20;99.90
5930;DHT22;2990;48.746;9.236;2024-01-15T07:36:26;-1.10;99.00
5930;DHT22;2990;48.746;9.236;2024-01-15T07:38:52;-1.20;1.00
5930;DHT22;2990;48.746;9.236;2024-01-15T07:41:17;-1.10;1.00
5930;DHT22;2990;48.746;9.236;2024-01-15T07:43:43;-1.10;99.90
5930;DHT22;2990;48.746;9.236;2024-01-15T07:46:09;-1.10;1.00
5930;DHT22;2990;48.746;9.236;2024-01-15T07:48:34;-1.10;1.00
5930;DHT22;2990;48.746;9.236;2024-01-15T07:51:00;-1.00;1.00
5930;DHT22;2990;48.746;9.236;2024-01-15T07:53:25;-1.10;99.90
5930;DHT22;2990;48.746;9.236;2024-01-15T07:55:51;-1.00;99.90
5930;DHT22;2990;48.746;9.236;2024-01-15T07:58:17;-1.00;99.90
5930;DHT22;2990;48.746;9.236;2024-01-15T08:00:42;-1.00;99.90
5930;DHT22;2990;48.746;9.236;2024-01-15T08:03:08;-1.00;99.90
5930;DHT22;2990;48.746;9.236;2024-01-15T08:05:33;-1.00;99.90
5930;DHT22;2990;48.746;9.236;2024-01-15T08:07:59;-1.00;24.30
5930;DHT22;2990;48.746;9.236;2024-01-15T08:10:24;-0.90;1.00
5930;DHT22;2990;48.746;9.236;2024-01-15T08:12:50;-0.90;1.00
5930;DHT22;2990;48.746;9.236;2024-01-15T08:15:16;-0.90;99.90
5930;DHT22;2990;48.746;9.236;2024-01-15T08:17:42;-1.00;99.90
5930;DHT22;2990;48.746;9.236;2024-01-15T08:20:08;-0.90;1.00
5930;DHT22;2990;48.746;9.236;2024-01-15T08:22:34;-0.90;1.00
5930;DHT22;2990;48.746;9.236;2024-01-15T08:24:59;-0.90;1.00
5930;DHT22;2990;48.746;9.236;2024-01-15T08:27:25;-0.90;27.80
5930;DHT22;2990;48.746;9.236;2024-01-15T08:29:50;-0.90;99.90
5930;DHT22;2990;48.746;9.236;2024-01-15T08:32:17;-0.90;1.00
5930;DHT22;2990;48.746;9.236;2024-01-15T08:34:42;-0.80;1.00
5930;DHT22;2990;48.746;9.236;2024-01-15T08:37:08;-0.80;1.00
5930;DHT22;2990;48.746;9.236;2024-01-15T08:39:34;-0.80;99.90
5930;DHT22;2990;48.746;9.236;2024-01-15T08:41:59;-0.80;99.90
5930;DHT22;2990;48.746;9.236;2024-01-15T08:44:25;-0.80;1.00
5930;DHT22;2990;48.746;9.236;2024-01-15T08:46:50;-0.70;1.00
5930;DHT22;2990;48.746;9.236;2024-01-15T08:49:16;-0.60;99.90
5930;DHT22;2990;48.746;9.236;2024-01-15T08:51:41;-0.60;99.90
5930;DHT22;2990;48.746;9.236;2024-01-15T08:54:07;-0.60;1.00
5930;DHT22;2990;48.746;9.236;2024-01-15T08:56:34;-0.50;1.00
5930;DHT22;2990;48.746;9.236;2024-01-15T08:58:59;-0.50;1.00
5930;DHT22;2990;48.746;9.236;2024-01-15T09:01:25;-0.50;1.00
5930;DHT22;2990;48.746;9.236;2024-01-15T09:03:50;-0.50;1.00
5930;DHT22;2990;48.746;9.236;2024-01-15T09:06:16;-0.40;1.00
5930;DHT22;2990;48.746;9.236;2024-01-15T09:08:42;-0.40;99.90
5930;DHT22;2990;48.746;9.236;2024-01-15T09:11:07;-0.30;99.90
5930;DHT22;2990;48.746;9.236;2024-01-15T09:13:33;-0.30;99.90
5930;DHT22;2990;48.746;9.236;2024-01-15T09:15:58;-0.30;99.90
5930;DHT22;2990;48.746;9.236;2024-01-15T09:18:25;-0.30;99.90
5930;DHT22;2990;48.746;9.236;2024-01-15T09:20:50;-0.30;66.40
5930;DHT22;2990;48.746;9.236;2024-01-15T09:23:16;-0.20;28.30
5930;DHT22;2990;48.746;9.236;2024-01-15T09:25:41;-0.20;1.80
5930;DHT22;2990;48.746;9.236;2024-01-15T09:28:07;-0.20;1.00
5930;DHT22;2990;48.746;9.236;2024-01-15T09:30:33;-0.10;1.00
5930;DHT22;2990;48.746;9.236;2024-01-15T09:32:59;-0.10;1.00
5930;DHT22;2990;48.746;9.236;2024-01-15T09:35:24;0.00;1.00
5930;DHT22;2990;48.746;9.236;2024-01-15T09:37:50;0.00;1.00
5930;DHT22;2990;48.746;9.236;2024-01-15T09:40:15;0.10;1.00
5930;DHT22;2990;48.746;9.236;2024-01-15T09:42:42;0.10;1.00
5930;DHT22;2990;48.746;9.236;2024-01-15T09:45:08;0.00;1.00
5930;DHT22;2990;48.746;9.236;2024-01-15T09:47:36;0.10;1.00
5930;DHT22;2990;48.746;9.236;2024-01-15T09:50:02;0.10;1.00
5930;DHT22;2990;48.746;9.236;2024-01-15T09:52:30;0.10;1.00
5930;DHT22;2990;48.746;9.236;2024-01-15T09:54:57;0.20;1.00
5930;DHT22;2990;48.746;9.236;2024-01-15T09:57:23;0.20;1.00
5930;DHT22;2990;48.746;9.236;2024-01-15T09:59:50;0.20;1.00
5930;DHT22;2990;48.746;9.236;2024-01-15T10:02:17;0.20;1.00
5930;DHT22;2990;48.746;9.236;2024-01-15T10:04:44;0.30;1.00
5930;DHT22;2990;48.746;9.236;2024-01-15T10:07:14;0.30;1.00
5930;DHT22;2990;48.746;9.236;2024-01-15T10:09:40;0.30;1.00
5930;DHT22;2990;48.746;9.236;2024-01-15T10:12:06;0.30;1.00
5930;DHT22;2990;48.746;9.236;2024-01-15T10:14:32;0.30;1.00
5930;DHT22;2990;48.746;9.236;2024-01-15T10:16:58;0.30;1.00
5930;DHT22;2990;48.746;9.236;2024-01-15T10:19:23;0.30;1.00
5930;DHT22;2990;48.746;9.236;2024-01-15T10:21:49;0.30;99.90
5930;DHT22;2990;48.746;9.236;2024-01-15T10:24:14;0.30;1.00
5930;DHT22;2990;48.746;9.236;2024-01-15T10:26:40;0.30;99.90
5930;DHT22;2990;48.746;9.236;2024-01-15T10:29:05;0.30;1.00
5930;DHT22;2990;48.746;9.236;2024-01-15T10:31:31;0.30;1.00
5930;DHT22;2990;48.746;9.236;2024-01-15T10:34:12;0.30;1.00
5930;DHT22;2990;48.746;9.236;2024-01-15T10:36:40;0.40;1.00
5930;DHT22;2990;48.746;9.236;2024-01-15T10:39:06;0.40;1.00
5930;DHT22;2990;48.746;9.236;2024-01-15T10:41:33;0.40;1.00
5930;DHT22;2990;48.746;9.236;2024-01-15T10:43:58;0.40;1.00
5930;DHT22;2990;48.746;9.236;2024-01-15T10:46:24;0.40;1.00
5930;DHT22;2990;48.746;9.236;2024-01-15T10:48:51;0.40;1.00
5930;DHT22;2990;48.746;9.236;2024-01-15T10:51:17;0.40;1.00
5930;DHT22;2990;48.746;9.236;2024-01-15T10:53:44;0.40;1.00
5930;DHT22;2990;48.746;9.236;2024-01-15T10:56:11;0.40;1.00
5930;DHT22;2990;48.746;9.236;2024-01-15T10:58:39;0.40;1.00
5930;DHT22;2990;48.746;9.236;2024-01-15T11:01:05;0.40;1.00
5930;DHT22;2990;48.746;9.236;2024-01-15T11:03:31;0.50;1.00
5930;DHT22;2990;48.746;9.236;2024-01-15T11:05:56;0.50;1.00
5930;DHT22;2990;48.746;9.236;2024-01-15T11:08:24;0.60;1.00
5930;DHT22;2990;48.746;9.236;2024-01-15T11:10:53;0.60;1.00
5930;DHT22;2990;48.746;9.236;2024-01-15T11:16:03;0.60;1.00
5930;DHT22;2990;48.746;9.236;2024-01-15T11:26:43;0.70;99.90
5930;DHT22;2990;48.746;9.236;2024-01-15T11:29:30;0.70;1.00
5930;DHT22;2990;48.746;9.236;2024-01-15T11:32:00;0.60;1.00
5930;DHT22;2990;48.746;9.236;2024-01-15T11:35:05;0.60;1.00
5930;DHT22;2990;48.746;9.236;2024-01-15T11:40:18;0.70;1.00
5930;DHT22;2990;48.746;9.236;2024-01-15T11:42:44;0.70;1.00
5930;DHT22;2990;48.746;9.236;2024-01-15T11:45:10;0.70;1.00
5930;DHT22;2990;48.746;9.236;2024-01-15T11:48:35;0.70;1.00
5930;DHT22;2990;48.746;9.236;2024-01-15T11:50:34;0.70;99.90
5930;DHT22;2990;48.746;9.236;2024-01-15T11:53:03;0.60;1.00
5930;DHT22;2990;48.746;9.236;2024-01-15T11:55:35;0.60;99.90
5930;DHT22;2990;48.746;9.236;2024-01-15T11:58:02;0.50;1.00
5930;DHT22;2990;48.746;9.236;2024-01-15T12:00:30;0.50;99.90
5930;DHT22;2990;48.746;9.236;2024-01-15T12:02:58;0.50;99.90
5930;DHT22;2990;48.746;9.236;2024-01-15T12:05:24;0.40;1.00
5930;DHT22;2990;48.746;9.236;2024-01-15T12:07:50;0.40;1.00
5930;DHT22;2990;48.746;9.236;2024-01-15T12:10:20;0.30;1.00
5930;DHT22;2990;48.746;9.236;2024-01-15T12:12:53;0.30;99.90
5930;DHT22;2990;48.746;9.236;2024-01-15T12:15:20;0.30;99.90
5930;DHT22;2990;48.746;9.236;2024-01-15T12:17:46;0.40;99.90
5930;DHT22;2990;48.746;9.236;2024-01-15T12:20:13;0.40;1.00
5930;DHT22;2990;48.746;9.236;2024-01-15T12:22:39;0.30;99.90
5930;DHT22;2990;48.746;9.236;2024-01-15T12:25:05;0.30;1.00
5930;DHT22;2990;48.746;9.236;2024-01-15T12:27:30;0.30;27.90
5930;DHT22;2990;48.746;9.236;2024-01-15T12:29:58;0.20;1.00
5930;DHT22;2990;48.746;9.236;2024-01-15T12:32:24;0.10;99.90
5930;DHT22;2990;48.746;9.236;2024-01-15T12:34:50;0.00;1.00
5930;DHT22;2990;48.746;9.236;2024-01-15T12:37:18;0.00;1.00
5930;DHT22;2990;48.746;9.236;2024-01-15T12:39:45;-0.10;1.00
5930;DHT22;2990;48.746;9.236;2024-01-15T12:42:11;-0.20;1.00
5930;DHT22;2990;48.746;9.236;2024-01-15T12:44:36;-0.20;1.00
5930;DHT22;2990;48.746;9.236;2024-01-15T12:47:04;-0.30;1.00
5930;DHT22;2990;48.746;9.236;2024-01-15T12:49:30;-0.30;1.00
5930;DHT22;2990;48.746;9.236;2024-01-15T12:51:59;-0.30;6.30
5930;DHT22;2990;48.746;9.236;2024-01-15T12:54:26;-0.30;38.00
5930;DHT22;2990;48.746;9.236;2024-01-15T12:56:52;-0.30;71.70
5930;DHT22;2990;48.746;9.236;2024-01-15T12:59:18;-0.30;98.00
5930;DHT22;2990;48.746;9.236;2024-01-15T13:01:47;-0.30;99.90
5930;DHT22;2990;48.746;9.236;2024-01-15T13:04:24;-0.30;99.90
5930;DHT22;2990;48.746;9.236;2024-01-15T13:06:50;-0.30;99.90
5930;DHT22;2990;48.746;9.236;2024-01-15T13:09:19;-0.20;99.90
5930;DHT22;2990;48.746;9.236;2024-01-15T13:11:45;-0.20;99.90
5930;DHT22;2990;48.746;9.236;2024-01-15T13:14:11;-0.20;99.90
5930;DHT22;2990;48.746;9.236;2024-01-15T13:16:36;-0.10;93.70
5930;DHT22;2990;48.746;9.236;2024-01-15T13:19:02;-0.10;93.40
5930;DHT22;2990;48.746;9.236;2024-01-15T13:21:29;-0.10;83.60
5930;DHT22;2990;48.746;9.236;2024-01-15T13:23:55;-0.10;57.80
5930;DHT22;2990;48.746;9.236;2024-01-15T13:26:21;-0.10;49.40
5930;DHT22;2990;48.746;9.236;2024-01-15T13:28:46;-0.10;49.00
5930;DHT22;2990;48.746;9.236;2024-01-15T13:31:12;-0.10;49.60
5930;DHT22;2990;48.746;9.236;2024-01-15T13:33:38;-0.10;53.40
5930;DHT22;2990;48.746;9.236;2024-01-15T13:36:04;-0.10;57.50
5930;DHT22;2990;48.746;9.236;2024-01-15T13:38:33;-0.10;67.10
5930;DHT22;2990;48.746;9.236;2024-01-15T13:41:02;-0.10;72.90
5930;DHT22;2990;48.746;9.236;2024-01-15T13:43:28;-0.10;70.90
5930;DHT22;2990;48.746;9.236;2024-01-15T13:45:53;-0.20;84.30
5930;DHT22;2990;48.746;9.236;2024-01-15T13:48:20;-0.10;85.20
5930;DHT22;2990;48.746;9.236;2024-01-15T13:50:45;-0.20;75.10
5930;DHT22;2990;48.746;9.236;2024-01-15T13:53:11;-0.20;87.40
5930;DHT22;2990;48.746;9.236;2024-01-15T13:55:37;-0.20;96.70
5930;DHT22;2990;48.746;9.236;2024-01-15T13:58:02;-0.20;99.90
5930;DHT22;2990;48.746;9.236;2024-01-15T14:00:31;-0.20;99.90
5930;DHT22;2990;48.746;9.236;2024-01-15T14:02:57;-0.20;99.90
5930;DHT22;2990;48.746;9.236;2024-01-15T14:05:23;-0.20;99.90
5930;DHT22;2990;48.746;9.236;2024-01-15T14:07:49;-0.20;99.90
5930;DHT22;2990;48.746;9.236;2024-01-15T14:10:14;-0.20;99.90
5930;DHT22;2990;48.746;9.236;2024-01-15T14:12:40;-0.20;99.90
5930;DHT22;2990;48.746;9.236;2024-01-15T14:15:06;-0.20;99.90
5930;DHT22;2990;48.746;9.236;2024-01-15T14:17:32;-0.20;99.90
5930;DHT22;2990;48.746;9.236;2024-01-15T14:19:58;-0.20;99.90
5930;DHT22;2990;48.746;9.236;2024-01-15T14:22:23;-0.20;99.90
5930;DHT22;2990;48.746;9.236;2024-01-15T14:24:49;-0.20;99.90
5930;DHT22;2990;48.746;9.236;2024-01-15T14:27:15;-0.20;99.90
5930;DHT22;2990;48.746;9.236;2024-01-15T14:29:40;-0.30;99.90
5930;DHT22;2990;48.746;9.236;2024-01-15T14:32:06;-0.30;99.90
5930;DHT22;2990;48.746;9.236;2024-01-15T14:34:32;-0.20;99.90
5930;DHT22;2990;48.746;9.236;2024-01-15T14:36:57;-0.20;99.90
5930;DHT22;2990;48.746;9.236;2024-01-15T14:39:23;-0.20;99.90
5930;DHT22;2990;48.746;9.236;2024-01-15T14:41:49;-0.30;99.90
5930;DHT22;2990;48.746;9.236;2024-01-15T14:44:14;-0.30;99.90
5930;DHT22;2990;48.746;9.236;2024-01-15T14:46:40;-0.30;60.00
5930;DHT22;2990;48.746;9.236;2024-01-15T14:49:06;-0.30;34.20
5930;DHT22;2990;48.746;9.236;2024-01-15T14:51:32;-0.30;6.40
5930;DHT22;2990;48.746;9.236;2024-01-15T14:53:57;-0.40;1.00
5930;DHT22;2990;48.746;9.236;2024-01-15T14:56:23;-0.40;1.00
5930;DHT22;2990;48.746;9.236;2024-01-15T14:58:49;-0.40;1.00
5930;DHT22;2990;48.746;9.236;2024-01-15T15:01:14;-0.40;1.00
5930;DHT22;2990;48.746;9.236;2024-01-15T15:03:40;-0.50;1.00
5930;DHT22;2990;48.746;9.236;2024-01-15T15:06:06;-0.50;1.00
5930;DHT22;2990;48.746;9.236;2024-01-15T15:08:33;-0.50;1.00
5930;DHT22;2990;48.746;9.236;2024-01-15T15:10:59;-0.50;1.00
5930;DHT22;2990;48.746;9.236;2024-01-15T15:13:25;-0.60;1.00
5930;DHT22;2990;48.746;9.236;2024-01-15T15:15:53;-0.60;1.00
5930;DHT22;2990;48.746;9.236;2024-01-15T15:18:20;-0.60;1.00
5930;DHT22;2990;48.746;9.236;2024-01-15T15:20:47;-0.60;1.00
5930;DHT22;2990;48.746;9.236;2024-01-15T15:23:12;-0.60;1.00
5930;DHT22;2990;48.746;9.236;2024-01-15T15:25:38;-0.70;1.00
5930;DHT22;2990;48.746;9.236;2024-01-15T15:28:03;-0.70;1.00
5930;DHT22;2990;48.746;9.236;2024-01-15T15:30:30;-0.70;1.00
5930;DHT22;2990;48.746;9.236;2024-01-15T15:32:56;-0.70;1.00
5930;DHT22;2990;48.746;9.236;2024-01-15T15:35:22;-0.70;1.00
5930;DHT22;2990;48.746;9.236;2024-01-15T15:37:47;-0.70;1.00
5930;DHT22;2990;48.746;9.236;2024-01-15T15:40:13;-0.70;1.00
5930;DHT22;2990;48.746;9.236;2024-01-15T15:42:38;-0.80;1.00
5930;DHT22;2990;48.746;9.236;2024-01-15T15:45:04;-0.80;1.00
5930;DHT22;2990;48.746;9.236;2024-01-15T15:47:30;-0.80;1.00
5930;DHT22;2990;48.746;9.236;2024-01-15T15:49:56;-0.80;1.00
5930;DHT22;2990;48.746;9.236;2024-01-15T15:52:22;-0.80;1.00
5930;DHT22;2990;48.746;9.236;2024-01-15T15:54:47;-0.80;1.00
5930;DHT22;2990;48.746;9.236;2024-01-15T15:57:13;-0.80;1.00
5930;DHT22;2990;48.746;9.236;2024-01-15T15:59:38;-0.80;1.00
5930;DHT22;2990;48.746;9.236;2024-01-15T16:02:04;-0.80;1.00
5930;DHT22;2990;48.746;9.236;2024-01-15T16:04:30;-0.80;1.00
5930;DHT22;2990;48.746;9.236;2024-01-15T16:06:56;-0.90;1.00
5930;DHT22;2990;48.746;9.236;2024-01-15T16:09:21;-0.90;1.00
5930;DHT22;2990;48.746;9.236;2024-01-15T16:11:48;-0.90;1.00
5930;DHT22;2990;48.746;9.236;2024-01-15T16:14:14;-0.90;1.00
5930;DHT22;2990;48.746;9.236;2024-01-15T16:16:40;-0.90;1.00
5930;DHT22;2990;48.746;9.236;2024-01-15T16:19:06;-0.90;1.00
5930;DHT22;2990;48.746;9.236;2024-01-15T16:21:32;-0.90;1.00